Time;durP1;ratioP1;P1;durP2;ratioP2;P2;SDS_P1;SDS_P2;PMS_P1;PMS_P2;Temp;Humidity;BMP_temperature;BMP_pressure;BME280_temperature;BME280_humidity;BME280_pressure;Samples;Min_cycle;Max_cycle;Signal;HPM_P1;HPM_P2
2023/11/10 00:00:43;;;;;;;26.13;14.82;;;;;;;;;;6259662;22;20008;-96
2023/11/10 00:03:09;;;;;;;27.67;15.27;;;;;;;;;;6257591;22;20074;-96
2023/11/10 00:05:48;;;;;;;32.47;18.50;;;;;;;;;;6256770;22;20385;-95
2023/11/10 00:08:17;;;;;;;36.17;19.58;;;;;;;;;;6256423;22;20011;-96
2023/11/10 00:10:47;;;;;;;32.42;18.17;;;;;;;;;;6258843;22;20003;-95
2023/11/10 00:13:22;;;;;;;37.13;18.47;;;;;;;;;;6292539;22;20004;-95
2023/11/10 00:16:08;;;;;;;33.13;18.27;;;;;;;;;;6255344;22;20010;-95
2023/11/10 00:18:40;;;;;;;40.08;21.15;;;;;;;;;;6294143;22;20003;-95
2023/11/10 00:21:13;;;;;;;32.70;18.55;;;;;;;;;;6255317;22;20008;-95
2023/11/10 00:23:52;;;;;;;30.90;17.33;;;;;;;;;;6254912;22;20022;-95
2023/11/10 00:29:25;;;;;;;31.20;18.60;;;;;;;;;;6265967;22;20426;-95
2023/11/10 00:35:19;;;;;;;32.72;17.67;;;;;;;;;;6262822;22;20027;-96
2023/11/10 00:38:10;;;;;;;;;;;;;;;;;;;;;
2023/11/10 00:40:45;;;;;;;29.98;16.67;;;;;;;;;;6282272;22;20090;-96
2023/11/10 00:43:15;;;;;;;37.28;17.60;;;;;;;;;;6267876;22;20082;-96
2023/11/10 00:45:47;;;;;;;23.42;14.00;;;;;;;;;;6273095;22;20007;-95
2023/11/10 00:51:26;;;;;;;;;;;;;;;;;;;;;
2023/11/10 00:56:50;;;;;;;27.23;14.57;;;;;;;;;;6284411;22;20449;-96
2023/11/10 00:59:40;;;;;;;20.10;11.90;;;;;;;;;;6257700;23;20004;-96
2023/11/10 01:02:18;;;;;;;25.75;14.85;;;;;;;;;;6263708;23;20095;-96
2023/11/10 01:04:49;;;;;;;24.45;13.85;;;;;;;;;;6255924;23;20004;-95
2023/11/10 01:07:21;;;;;;;28.35;15.50;;;;;;;;;;6256796;23;20059;-96
2023/11/10 01:09:51;;;;;;;32.78;15.82;;;;;;;;;;6256967;23;20004;-95
2023/11/10 01:12:36;;;;;;;32.60;17.48;;;;;;;;;;6258564;23;20004;-95
2023/11/10 01:18:23;;;;;;;26.73;14.07;;;;;;;;;;6237405;23;20019;-95
2023/11/10 01:20:57;;;;;;;19.23;11.18;;;;;;;;;;6259891;23;20012;-96
2023/11/10 01:23:35;;;;;;;17.70;10.32;;;;;;;;;;6256864;23;20020;-95
2023/11/10 01:32:21;;;;;;;28.17;14.35;;;;;;;;;;6261393;23;20031;-96
2023/11/10 01:35:16;;;;;;;29.80;14.93;;;;;;;;;;6198288;23;20000;-96
2023/11/10 01:37:47;;;;;;;28.33;15.25;;;;;;;;;;6262134;22;20007;-96
2023/11/10 01:40:51;;;;;;;30.17;14.95;;;;;;;;;;6245569;22;20020;-96
2023/11/10 01:43:26;;;;;;;21.90;12.63;;;;;;;;;;6229637;23;20012;-96
2023/11/10 01:49:13;;;;;;;28.05;15.02;;;;;;;;;;6259553;23;20003;-96
2023/11/10 01:52:14;;;;;;;25.63;14.45;;;;;;;;;;6187401;23;19992;-96
2023/11/10 01:55:21;;;;;;;27.67;15.70;;;;;;;;;;6260843;23;20040;-96
2023/11/10 01:57:51;;;;;;;23.92;13.80;;;;;;;;;;6233840;23;20008;-96
2023/11/10 02:03:10;;;;;;;31.70;16.33;;;;;;;;;;6251986;23;20016;-96
2023/11/10 02:05:36;;;;;;;28.63;15.40;;;;;;;;;;6247360;22;19996;-96
2023/11/10 02:11:21;;;;;;;28.52;16.08;;;;;;;;;;6208935;23;20422;-96
2023/11/10 02:19:56;;;;;;;27.08;15.13;;;;;;;;;;6248707;23;20115;-96
2023/11/10 02:22:22;;;;;;;25.88;15.30;;;;;;;;;;6248657;23;20075;-96
2023/11/10 02:24:59;;;;;;;23.65;14.55;;;;;;;;;;6248182;23;20024;-96
2023/11/10 02:27:32;;;;;;;30.80;16.23;;;;;;;;;;6248468;23;20008;-96
2023/11/10 02:30:29;;;;;;;28.92;16.05;;;;;;;;;;6249029;23;20008;-96
2023/11/10 02:32:55;;;;;;;21.92;13.10;;;;;;;;;;6249322;23;20035;-96
2023/11/10 02:35:21;;;;;;;29.77;16.15;;;;;;;;;;6249799;23;20010;-96
2023/11/10 02:40:51;;;;;;;25.20;15.45;;;;;;;;;;6249934;23;20128;-96
2023/11/10 02:43:25;;;;;;;22.25;13.15;;;;;;;;;;6248021;23;20016;-96
2023/11/10 02:46:01;;;;;;;31.55;17.38;;;;;;;;;;6257442;23;20006;-96
2023/11/10 02:48:28;;;;;;;34.83;19.00;;;;;;;;;;6255469;23;20008;-96
2023/11/10 02:51:00;;;;;;;43.95;23.58;;;;;;;;;;6224485;23;20004;-96
2023/11/10 02:53:26;;;;;;;41.97;24.63;;;;;;;;;;6248738;23;20095;-96
2023/11/10 02:56:01;;;;;;;38.92;24.23;;;;;;;;;;6246235;23;20365;-95
2023/11/10 02:58:49;;;;;;;44.67;26.42;;;;;;;;;;6248012;23;20329;-96
2023/11/10 03:01:42;;;;;;;42.80;24.50;;;;;;;;;;6247517;23;20008;-96
2023/11/10 03:04:17;;;;;;;56.85;29.90;;;;;;;;;;6247225;23;20012;-96
2023/11/10 03:06:46;;;;;;;48.63;28.25;;;;;;;;;;6247890;23;20007;-96
2023/11/10 03:19:01;;;;;;;41.10;23.05;;;;;;;;;;6157312;23;20048;-96
2023/11/10 03:27:05;;;;;;;35.42;19.98;;;;;;;;;;6281164;22;20056;-96
2023/11/10 03:32:36;;;;;;;28.75;17.20;;;;;;;;;;6129450;23;20044;-96
2023/11/10 03:35:21;;;;;;;;;;;;;;;;;;;;;
2023/11/10 03:37:50;;;;;;;29.25;16.90;;;;;;;;;;6286807;22;20014;-95
2023/11/10 03:40:23;;;;;;;31.95;16.58;;;;;;;;;;6273646;22;20022;-96
2023/11/10 03:42:56;;;;;;;28.67;15.90;;;;;;;;;;6256690;22;20012;-96
2023/11/10 03:45:44;;;;;;;31.02;16.48;;;;;;;;;;6253744;22;20015;-96
2023/11/10 03:48:22;;;;;;;30.20;16.13;;;;;;;;;;6278132;22;20007;-96
2023/11/10 03:51:04;;;;;;;;;;;;;;;;;;;;;
2023/11/10 03:53:31;;;;;;;30.13;16.88;;;;;;;;;;6249968;23;20080;-96
2023/11/10 03:55:57;;;;;;;32.10;15.77;;;;;;;;;;6248702;23;20004;-96
2023/11/10 03:58:30;;;;;;;27.05;15.93;;;;;;;;;;6248103;23;20008;-95
2023/11/10 04:01:07;;;;;;;;;;;;;;;;;;;;;
2023/11/10 04:04:03;;;;;;;28.98;16.50;;;;;;;;;;6249310;23;20114;-96
2023/11/10 04:06:29;;;;;;;32.55;16.60;;;;;;;;;;6223193;23;20000;-96
2023/11/10 04:08:58;;;;;;;23.15;14.55;;;;;;;;;;6249751;23;20004;-96
2023/11/10 04:14:40;;;;;;;27.13;16.25;;;;;;;;;;6188538;23;20416;-96
2023/11/10 04:17:18;;;;;;;26.40;16.63;;;;;;;;;;6164043;23;20001;-96
2023/11/10 04:20:11;;;;;;;31.67;18.50;;;;;;;;;;6159142;23;20012;-96
2023/11/10 04:22:41;;;;;;;33.00;17.70;;;;;;;;;;6159300;23;20018;-96
2023/11/10 04:25:17;;;;;;;26.42;16.17;;;;;;;;;;6174573;23;20017;-95
2023/11/10 04:27:52;;;;;;;30.08;17.77;;;;;;;;;;6193484;23;20001;-95
2023/11/10 04:30:22;;;;;;;26.85;15.93;;;;;;;;;;6192885;23;20008;-96
2023/11/10 04:32:52;;;;;;;29.63;16.48;;;;;;;;;;6196786;23;19996;-96
2023/11/10 04:35:19;;;;;;;29.33;16.42;;;;;;;;;;6205410;23;20373;-96
2023/11/10 04:37:46;;;;;;;23.63;14.48;;;;;;;;;;6193809;23;20001;-96
2023/11/10 04:40:15;;;;;;;20.63;13.20;;;;;;;;;;6193112;23;20004;-96
2023/11/10 04:42:44;;;;;;;26.02;16.10;;;;;;;;;;6193471;23;20044;-96
2023/11/10 04:45:10;;;;;;;28.85;17.20;;;;;;;;;;6190044;23;20084;-96
2023/11/10 04:47:43;;;;;;;30.65;17.90;;;;;;;;;;6194760;23;20039;-95
2023/11/10 04:53:34;;;;;;;28.02;15.10;;;;;;;;;;6252453;23;20043;-96
2023/11/10 04:56:03;;;;;;;24.00;15.10;;;;;;;;;;6226344;23;20011;-96
2023/11/10 04:58:32;;;;;;;26.30;16.20;;;;;;;;;;6224552;23;20330;-96
2023/11/10 05:01:43;;;;;;;20.77;14.45;;;;;;;;;;6227805;23;20008;-96
2023/11/10 05:04:18;;;;;;;27.35;17.02;;;;;;;;;;6105778;23;20013;-96
2023/11/10 05:06:47;;;;;;;24.15;12.25;;;;;;;;;;6125667;23;20006;-96
2023/11/10 05:09:47;;;;;;;33.42;16.85;;;;;;;;;;6106350;23;20088;-96
2023/11/10 05:12:31;;;;;;;33.22;17.23;;;;;;;;;;6130452;23;20073;-95
2023/11/10 05:14:57;;;;;;;;;;;;;;;;;;6132497;23;20002;-95
2023/11/10 05:17:24;;;;;;;21.08;11.20;;;;;;;;;;6113117;23;19928;-94
2023/11/10 05:20:04;;;;;;;32.75;16.33;;;;;;;;;;6194019;23;20009;-96
2023/11/10 05:22:32;;;;;;;35.90;19.85;;;;;;;;;;6166000;23;20013;-96
2023/11/10 05:25:04;;;;;;;31.60;20.75;;;;;;;;;;6165594;23;20021;-96
2023/11/10 05:27:49;;;;;;;33.88;19.80;;;;;;;;;;6165445;23;20013;-96
2023/11/10 05:30:15;;;;;;;33.80;21.35;;;;;;;;;;6227127;22;20023;-95
2023/11/10 05:35:50;;;;;;;35.78;21.35;;;;;;;;;;6285625;22;20087;-95
2023/11/10 05:38:17;;;;;;;34.25;20.40;;;;;;;;;;6254762;22;20006;-96
2023/11/10 05:43:57;;;;;;;34.03;19.70;;;;;;;;;;6286420;22;20031;-96
2023/11/10 05:46:26;;;;;;;31.88;18.73;;;;;;;;;;6259826;22;20498;-96
2023/11/10 05:49:11;;;;;;;29.90;18.10;;;;;;;;;;6276378;22;20003;-96
2023/11/10 05:51:50;;;;;;;;;;;;;;;;;;;;;
2023/11/10 05:54:32;;;;;;;33.85;18.67;;;;;;;;;;6285426;22;20027;-96
2023/11/10 05:56:58;;;;;;;32.95;17.35;;;;;;;;;;6255575;22;20031;-96
2023/11/10 05:59:25;;;;;;;36.97;16.77;;;;;;;;;;6255359;22;20027;-95
2023/11/10 06:01:51;;;;;;;22.70;14.77;;;;;;;;;;6251554;23;20020;-96
2023/11/10 06:04:21;;;;;;;29.13;16.02;;;;;;;;;;6223357;23;20311;-96
2023/11/10 06:09:37;;;;;;;30.63;16.70;;;;;;;;;;6248565;22;20083;-96
2023/11/10 06:12:06;;;;;;;31.23;16.88;;;;;;;;;;6248262;23;20012;-95
2023/11/10 06:14:52;;;;;;;31.38;18.65;;;;;;;;;;6250540;23;20008;-96
2023/11/10 06:17:19;;;;;;;33.60;17.27;;;;;;;;;;6249254;23;20004;-96
2023/11/10 06:19:52;;;;;;;29.98;16.88;;;;;;;;;;6247573;23;20004;-93
2023/11/10 06:22:21;;;;;;;33.67;17.98;;;;;;;;;;6247122;23;20012;-95
2023/11/10 06:24:49;;;;;;;34.65;18.83;;;;;;;;;;6221453;23;20083;-96
2023/11/10 06:27:36;;;;;;;32.00;16.42;;;;;;;;;;6247839;23;20023;-96
2023/11/10 06:30:03;;;;;;;32.28;17.98;;;;;;;;;;6243606;23;20001;-95
2023/11/10 06:32:30;;;;;;;33.75;18.95;;;;;;;;;;6246360;23;20038;-95
2023/11/10 06:34:59;;;;;;;38.95;19.33;;;;;;;;;;6247269;23;20015;-95
2023/11/10 06:37:26;;;;;;;32.20;18.23;;;;;;;;;;6222656;23;20004;-96
2023/11/10 06:39:52;;;;;;;31.40;18.05;;;;;;;;;;6249433;23;20011;-96
2023/11/10 06:42:18;;;;;;;33.50;18.60;;;;;;;;;;6248186;23;20066;-96
2023/11/10 06:44:46;;;;;;;34.92;19.52;;;;;;;;;;6249277;23;20099;-95
2023/11/10 06:47:12;;;;;;;32.83;18.63;;;;;;;;;;6250627;23;20083;-96
2023/11/10 06:49:41;;;;;;;34.75;19.17;;;;;;;;;;6250434;23;20035;-96
2023/11/10 06:52:34;;;;;;;36.60;19.90;;;;;;;;;;6253819;23;20001;-96
2023/11/10 06:55:13;;;;;;;;;;;;;;;;;;;;;
2023/11/10 07:04:08;;;;;;;35.50;18.38;;;;;;;;;;6180710;23;20108;-95
2023/11/10 07:06:35;;;;;;;39.17;19.13;;;;;;;;;;6164489;23;20005;-95
2023/11/10 07:09:01;;;;;;;34.55;17.70;;;;;;;;;;6164315;23;20094;-95
2023/11/10 07:11:40;;;;;;;30.58;16.63;;;;;;;;;;6180050;23;19990;-95
2023/11/10 07:14:06;;;;;;;21.35;13.52;;;;;;;;;;6206626;23;20012;-95
2023/11/10 07:17:04;;;;;;;23.73;15.68;;;;;;;;;;6167759;23;20005;-96
2023/11/10 07:19:31;;;;;;;18.10;11.25;;;;;;;;;;6253066;23;20011;-95
2023/11/10 07:21:57;;;;;;;20.63;13.20;;;;;;;;;;6254530;23;20004;-96
2023/11/10 07:24:25;;;;;;;20.55;13.63;;;;;;;;;;6254034;23;20008;-96
2023/11/10 07:26:57;;;;;;;18.58;13.85;;;;;;;;;;6262127;23;20000;-96
2023/11/10 07:32:47;;;;;;;20.35;13.13;;;;;;;;;;6249192;22;20015;-96
2023/11/10 07:35:15;;;;;;;22.55;15.02;;;;;;;;;;6266972;22;20012;-96
2023/11/10 09:31:51;;;;;;;12.77;8.48;;;;;;;;;;6263114;22;20023;31
2023/11/10 10:04:29;;;;;;;11.45;6.97;;;;;;;;;;6263495;22;20034;-96
2023/11/10 10:24:03;;;;;;;12.48;8.30;;;;;;;;;;6289100;22;20026;-95
2023/11/10 10:32:41;;;;;;;17.57;10.13;;;;;;;;;;6254454;22;20020;31
2023/11/10 10:35:27;;;;;;;16.35;9.98;;;;;;;;;;6218786;23;20009;-93
2023/11/10 10:38:01;;;;;;;17.70;12.23;;;;;;;;;;6238648;23;19996;-93
2023/11/10 10:44:00;;;;;;;22.92;13.68;;;;;;;;;;6276758;22;20063;31
2023/11/10 10:59:20;;;;;;;25.95;16.20;;;;;;;;;;6300747;22;20023;-94
2023/11/10 11:05:14;;;;;;;31.65;16.30;;;;;;;;;;6253093;22;19931;-91
2023/11/10 11:08:05;;;;;;;29.63;19.15;;;;;;;;;;6260029;22;20004;-96
2023/11/10 11:11:03;;;;;;;29.55;18.08;;;;;;;;;;6296604;22;20011;-95
2023/11/10 11:18:44;;;;;;;28.30;17.65;;;;;;;;;;6277023;22;20019;-93
2023/11/10 11:21:16;;;;;;;32.13;18.45;;;;;;;;;;6270867;22;20000;-95
2023/11/10 11:24:06;;;;;;;31.17;19.08;;;;;;;;;;6264506;23;20016;-95
2023/11/10 11:26:35;;;;;;;32.47;19.55;;;;;;;;;;6270534;22;20006;-95
2023/11/10 11:35:18;;;;;;;31.77;19.25;;;;;;;;;;6297785;22;20014;-95
2023/11/10 11:38:06;;;;;;;29.73;18.23;;;;;;;;;;6301878;22;20018;-95
2023/11/10 11:49:14;;;;;;;29.52;17.50;;;;;;;;;;6246678;22;20112;-96
2023/11/10 11:52:16;;;;;;;26.92;17.08;;;;;;;;;;6261692;22;20026;-95
2023/11/10 11:55:02;;;;;;;25.88;16.23;;;;;;;;;;6263949;22;19992;-96
2023/11/10 12:05:48;;;;;;;29.85;18.17;;;;;;;;;;6303604;22;19995;-94
2023/11/10 12:08:16;;;;;;;30.30;18.73;;;;;;;;;;6300170;22;20066;-92
2023/11/10 12:10:45;;;;;;;33.78;20.85;;;;;;;;;;6260832;22;20103;-93
2023/11/10 12:13:41;;;;;;;27.02;19.00;;;;;;;;;;6263448;22;20060;-92
2023/11/10 12:25:29;;;;;;;35.53;19.55;;;;;;;;;;6266609;22;20027;-96
2023/11/10 12:28:33;;;;;;;;;;;;;;;;;;;;;
2023/11/10 12:45:42;;;;;;;32.28;20.85;;;;;;;;;;6278415;22;20115;-95
2023/11/10 12:48:30;;;;;;;28.13;17.85;;;;;;;;;;5598599;22;15094303;-94
2023/11/10 12:51:31;;;;;;;33.17;18.08;;;;;;;;;;6238716;22;19996;-96
2023/11/10 12:54:06;;;;;;;35.88;22.15;;;;;;;;;;6168506;23;20013;-95
2023/11/10 12:56:41;;;;;;;39.22;23.15;;;;;;;;;;6146650;23;20002;-96
2023/11/10 12:59:19;;;;;;;34.20;22.20;;;;;;;;;;6230485;22;20038;-93
2023/11/10 13:02:21;;;;;;;31.05;20.60;;;;;;;;;;6239002;23;20059;-95
2023/11/10 13:10:44;;;;;;;28.65;18.58;;;;;;;;;;6277585;22;20019;-95
2023/11/10 13:13:40;;;;;;;30.45;19.08;;;;;;;;;;6248233;22;20026;-94
2023/11/10 13:19:33;;;;;;;33.58;20.10;;;;;;;;;;6263716;22;20086;31
2023/11/10 13:48:03;;;;;;;27.83;18.48;;;;;;;;;;6284742;22;20069;-95
2023/11/10 14:31:22;;;;;;;26.40;18.58;;;;;;;;;;6163209;23;20056;-96
2023/11/10 14:37:10;;;;;;;21.92;15.15;;;;;;;;;;6276894;22;20038;-95
2023/11/10 15:19:20;;;;;;;38.33;22.83;;;;;;;;;;6253075;22;21319;-94
2023/11/10 15:30:08;;;;;;;31.27;20.45;;;;;;;;;;6258307;22;20031;-96
2023/11/10 15:36:04;;;;;;;35.50;22.35;;;;;;;;;;6247877;22;20031;31
2023/11/10 16:17:39;;;;;;;32.85;21.25;;;;;;;;;;6262973;22;20019;31
2023/11/10 16:43:12;;;;;;;35.13;22.75;;;;;;;;;;6265712;22;20051;-93
2023/11/10 17:21:28;;;;;;;48.53;27.95;;;;;;;;;;6266204;22;20031;31
2023/11/10 18:18:48;;;;;;;26.02;17.60;;;;;;;;;;6266901;22;20026;-96
2023/11/10 18:46:56;;;;;;;;;;;;;;;;;;;;;
2023/11/10 19:06:26;;;;;;;;;;;;;;;;;;;;;
2023/11/10 19:08:23;;;;;;;26.80;16.77;;;;;;;;;;6246286;22;20039;-96
2023/11/10 19:11:01;;;;;;;;;;;;;;;;;;;;;
2023/11/10 19:13:39;;;;;;;29.58;17.75;;;;;;;;;;6219535;22;20008;-95
2023/11/10 19:16:34;;;;;;;;;;;;;;;;;;;;;
2023/11/10 19:22:10;;;;;;;26.10;16.20;;;;;;;;;;6292131;22;20018;-96
2023/11/10 19:25:09;;;;;;;27.45;16.98;;;;;;;;;;6243906;22;20015;-96
2023/11/10 19:30:22;;;;;;;26.30;17.60;;;;;;;;;;6291472;22;20364;-96
2023/11/10 19:33:01;;;;;;;27.20;17.90;;;;;;;;;;6290457;22;20019;-96
2023/11/10 19:35:32;;;;;;;24.58;16.98;;;;;;;;;;6277602;22;20019;-96
2023/11/10 19:56:07;;;;;;;29.40;17.83;;;;;;;;;;6249518;22;20857;31
2023/11/10 20:04:19;;;;;;;29.13;18.90;;;;;;;;;;6233096;22;20125;-95
2023/11/10 20:48:34;;;;;;;48.70;27.17;;;;;;;;;;6291436;22;20106;-96
2023/11/10 20:56:45;;;;;;;45.15;26.20;;;;;;;;;;6256549;22;20008;-95
2023/11/10 21:31:56;;;;;;;27.92;18.00;;;;;;;;;;6262193;22;20023;-96
2023/11/10 21:37:01;;;;;;;28.75;17.40;;;;;;;;;;6298252;22;20036;-94
2023/11/10 21:39:54;;;;;;;23.08;15.30;;;;;;;;;;6246841;22;20046;-94
2023/11/10 21:45:17;;;;;;;23.35;14.48;;;;;;;;;;6229719;22;20084;-95
2023/11/10 21:57:01;;;;;;;25.83;15.77;;;;;;;;;;6141233;23;20005;-95
2023/11/10 22:00:33;;;;;;;22.25;14.70;;;;;;;;;;6140837;23;20017;-96
2023/11/10 22:05:53;;;;;;;19.13;13.68;;;;;;;;;;6076589;23;20391;-96
2023/11/10 22:12:37;;;;;;;;;;;;;;;;;;;;;
2023/11/10 22:18:23;;;;;;;;;;;;;;;;;;5939680;24;20016;-96
2023/11/10 22:31:06;;;;;;;17.33;12.05;;;;;;;;;;5973817;24;20012;-96
2023/11/10 22:34:04;;;;;;;21.05;13.38;;;;;;;;;;5961261;24;20008;-96
2023/11/10 22:37:27;;;;;;;20.92;13.10;;;;;;;;;;6101185;23;20442;-96
2023/11/10 22:40:51;;;;;;;18.48;13.05;;;;;;;;;;6002109;24;20012;-96
2023/11/10 22:43:20;;;;;;;29.63;17.27;;;;;;;;;;5986446;23;20083;-96
2023/11/10 22:46:14;;;;;;;22.75;14.88;;;;;;;;;;6005816;23;20395;-96
2023/11/10 22:49:05;;;;;;;22.55;14.90;;;;;;;;;;6079919;23;19990;-96
2023/11/10 22:51:43;;;;;;;19.48;12.95;;;;;;;;;;6108793;23;20038;-95
2023/11/10 22:54:40;;;;;;;23.27;14.43;;;;;;;;;;6173221;22;20053;-95
2023/11/10 22:57:25;;;;;;;;;;;;;;;;;;;;;
2023/11/10 23:05:47;;;;;;;17.85;12.90;;;;;;;;;;6195022;23;20025;-96
2023/11/10 23:09:18;;;;;;;22.00;15.05;;;;;;;;;;6193649;23;20016;-95
2023/11/10 23:11:20;;;;;;;30.27;17.48;;;;;;;;;;6257914;22;20070;-96
2023/11/10 23:17:31;;;;;;;35.22;19.95;;;;;;;;;;6166091;23;20077;-96
2023/11/10 23:20:00;;;;;;;32.85;20.52;;;;;;;;;;6166621;23;20010;-96
2023/11/10 23:28:56;;;;;;;38.03;18.63;;;;;;;;;;6082128;23;20046;-96
2023/11/10 23:43:30;;;;;;;36.03;20.15;;;;;;;;;;5974512;23;20045;-95
2023/11/10 23:46:22;;;;;;;35.70;20.63;;;;;;;;;;6134056;23;20077;-96
2023/11/10 23:52:05;;;;;;;25.27;17.10;;;;;;;;;;6206145;22;20054;-96
